• Join FlightAware (Why Join?)
  • Login
  • US Flag 
04:41PM EDT


 

Airport Tracker/Info


-or-


 

Live Flight TrackerFlight Track Log ✈ SWA3206 ✈ 30-Apr-2013 ✈ KMDW - KSAN

Flight Track Log - Related Links

Times and Time Zones

All times are in EDT time to prevent confusion due to time zone crossing. See the SWA3206 flight status page for this flight to view local times or setup timezone preferences in your user account.

Time Position Orientation Groundspeed Altitude Reporting Facility
EDT Latitude Longitude Course Direction KTS MPH feet Rate Location/Type
02:00PM 41.7500 -87.8333 270° West 220 253 3,800  Level Chicago TRACON
02:01PM 41.7500 -87.9167 270° West 253 291 6,700 2,820 Climbing Chicago TRACON
02:02PM 41.7567 -88.0092 276° West 254 292 9,800 3,120 Climbing Chicago Center
02:03PM 41.7489 -88.1289 265° West 273 314 13,500 2,400 Climbing Chicago Center
02:04PM 41.7500 -88.2497 271° West 321 369 14,800 1,980 Climbing Chicago Center
02:05PM 41.7475 -88.3797 269° West 351 404 17,700 2,460 Climbing Chicago Center
02:06PM 41.7442 -88.5139 268° West 362 417 20,000 2,340 Climbing Chicago Center
02:07PM 41.7364 -88.6869 267° West 389 448 22,600 2,220 Climbing Chicago Center
02:08PM 41.7053 -88.8331 254° West 412 474 24,600 1,800 Climbing Chicago Center
02:09PM 41.6753 -88.9817 255° West 418 481 26,400 1,620 Climbing Chicago Center
02:10PM 41.6431 -89.1344 254° West 427 491 28,000 1,500 Climbing Chicago Center
02:11PM 41.6114 -89.2914 255° West 440 506 29,500 1,740 Climbing Chicago Center
02:13PM 41.5836 -89.4494 257° West 442 509 31,600 1,920 Climbing Chicago Center
02:14PM 41.5542 -89.6197 257° West 431 496 33,500 1,620 Climbing Chicago Center
02:15PM 41.5267 -89.7733 257° West 428 493 35,000 1,320 Climbing Chicago Center
02:16PM 41.4997 -89.9236 257° West 422 486 36,300 1,140 Climbing Chicago Center
02:17PM 41.4669 -90.1047 256° West 420 483 37,400 780 Climbing Chicago Center
02:18PM 41.4383 -90.2569 256° West 425 489 38,000 240 Climbing Chicago Center
02:19PM 41.4108 -90.4097 257° West 426 490 38,000  Level Chicago Center
02:20PM 41.3814 -90.5611 256° West 425 489 38,000  Level Chicago Center
02:21PM 41.3517 -90.7164 256° West 434 499 38,000  Level Chicago Center
02:22PM 41.3233 -90.8683 256° West 427 491 38,000  Level Chicago Center
02:23PM 41.2883 -91.0489 256° West 422 486 38,000  Level Chicago Center
02:24PM 41.2600 -91.1992 256° West 422 486 38,000  Level Chicago Center
02:25PM 41.2300 -91.3492 255° West 421 484 38,000  Level Chicago Center
02:26PM 41.2019 -91.4983 256° West 420 483 38,000  Level Chicago Center
02:27PM 41.1717 -91.6469 255° West 417 480 38,000  Level Chicago Center
02:28PM 41.1408 -91.8033 255° West 417 480 38,000  Level Chicago Center
02:29PM 41.1108 -91.9503 255° West 419 482 38,000  Level Chicago Center
02:30PM 41.0761 -92.1278 256° West 420 483 38,000  Level Chicago Center
02:31PM 41.0444 -92.2744 254° West 420 483 38,000  Level Chicago Center
02:32PM 41.0150 -92.4211 255° West 419 482 38,000  Level Chicago Center
02:33PM 40.9842 -92.5672 254° West 417 480 38,000  Level Chicago Center
02:34PM 40.9544 -92.7133 255° West 417 480 38,000  Level Chicago Center
02:35PM 40.9161 -92.8900 254° West 420 483 38,000  Level Chicago Center
02:36PM 40.8914 -93.0072 254° West 418 481 38,000  Level Minneapolis Center
02:37PM 40.8606 -93.1533 254° West 418 481 38,000  Level Minneapolis Center
02:38PM 40.8183 -93.3539 255° West 413 475 38,000  Level Minneapolis Center
02:39PM 40.7869 -93.5003 254° West 416 479 38,000  Level Minneapolis Center
02:40PM 40.7525 -93.6472 253° West 421 484 38,000  Level Minneapolis Center
02:41PM 40.7214 -93.7931 254° West 420 483 38,000  Level Minneapolis Center
02:43PM 40.6839 -93.9656 254° West 417 480 38,000  Level Minneapolis Center
02:44PM 40.6436 -94.1367 253° West 413 475 38,000  Level Minneapolis Center
02:45PM 40.6136 -94.2781 254° West 410 472 38,000  Level Minneapolis Center
02:46PM 40.5811 -94.4208 253° West 410 472 38,000  Level Minneapolis Center
02:47PM 40.5453 -94.5706 253° West 411 473 38,000  Level Minneapolis Center
02:48PM 40.5142 -94.7147 254° West 411 473 38,000  Level Minneapolis Center
02:49PM 40.4806 -94.8586 253° West 412 474 38,000  Level Minneapolis Center
02:50PM 40.4542 -94.9731 253° West 410 472 38,000  Level Minneapolis Center
02:51PM 40.4147 -95.1453 253° West 410 472 38,000  Level Minneapolis Center
02:52PM 40.3811 -95.2878 253° West 409 471 38,000  Level Minneapolis Center
02:53PM 40.3397 -95.4594 252° West 410 472 38,000  Level Minneapolis Center
02:54PM 40.3072 -95.6025 253° West 409 471 38,000  Level Minneapolis Center
02:55PM 40.2800 -95.7167 253° West 408 470 38,000  Level Minneapolis Center
02:56PM 40.2386 -95.8867 252° West 407 468 38,000  Level Minneapolis Center
02:57PM 40.2044 -96.0281 252° West 407 468 38,000  Level Minneapolis Center
02:58PM 40.1700 -96.1714 253° West 411 473 38,000  Level Minneapolis Center
02:59PM 40.1344 -96.3142 252° West 411 473 38,000  Level Minneapolis Center
03:00PM 40.1000 -96.4553 252° West 410 472 38,000  Level Minneapolis Center
03:01PM 40.0586 -96.6261 252° West 409 471 38,000  Level Minneapolis Center
03:02PM 40.0225 -96.7681 252° West 411 473 38,000  Level Minneapolis Center
03:03PM 39.9869 -96.9092 252° West 410 472 38,000  Level Minneapolis Center
03:04PM 39.9517 -97.0517 252° West 412 474 38,000  Level Minneapolis Center
03:05PM 39.9139 -97.1939 251° West 414 476 38,000  Level Minneapolis Center
03:06PM 39.8758 -97.3483 252° West 415 478 38,000  Level Minneapolis Center
03:07PM 39.8381 -97.4908 251° West 415 478 38,000  Level Minneapolis Center
03:08PM 39.8019 -97.6333 252° West 415 478 38,000  Level Minneapolis Center
03:09PM 39.7661 -97.7744 252° West 412 474 38,000  Level Minneapolis Center
03:10PM 39.7286 -97.9156 251° West 412 474 38,000  Level Minneapolis Center
03:11PM 39.6908 -98.0567 251° West 413 475 38,000  Level Minneapolis Center
03:12PM 39.6539 -98.1994 251° West 414 476 38,000  Level Minneapolis Center
03:13PM 39.6164 -98.3403 251° West 413 475 38,000  Level Minneapolis Center
03:14PM 39.6000 -98.3997 250° West 419 482 38,000  Level Denver Center
03:15PM 39.5625 -98.5417 251° West 417 480 38,000  Level Denver Center
03:16PM 39.5236 -98.6853 251° West 420 483 38,000  Level Denver Center
03:17PM 39.4850 -98.8267 251° West 416 479 38,000  Level Denver Center
03:18PM 39.4378 -98.9992 251° West 420 483 38,000  Level Denver Center
03:19PM 39.3986 -99.1425 251° West 421 484 38,000  Level Denver Center
03:20PM 39.3608 -99.2778 250° West 419 482 38,000  Level Denver Center
03:21PM 39.3167 -99.4369 250° West 421 484 38,000  Level Denver Center
03:22PM 39.2789 -99.5728 250° West 420 483 38,000  Level Denver Center
03:23PM 39.2411 -99.7072 250° West 416 479 38,000  Level Denver Center
03:24PM 39.1961 -99.8656 250° West 414 476 38,000  Level Denver Center
03:25PM 39.1597 -99.9958 250° West 412 474 38,000  Level Denver Center
03:26PM 39.1150 -100.1494 249° West 411 473 38,000  Level Denver Center
03:27PM 39.0781 -100.2797 250° West 405 466 38,000  Level Denver Center
03:28PM 39.0400 -100.4094 249° West 406 467 38,000  Level Denver Center
03:29PM 38.9953 -100.5631 250° West 407 468 38,000  Level Denver Center
03:30PM 38.9558 -100.6961 249° West 412 474 38,000  Level Denver Center
03:31PM 38.9114 -100.8506 250° West 414 476 38,000  Level Denver Center
03:32PM 38.8725 -100.9814 249° West 412 474 38,000  Level Denver Center
03:33PM 38.8328 -101.1364 252° West 411 473 38,000  Level Denver Center
03:34PM 38.8075 -101.2722 257° West 412 474 38,000  Level Denver Center
03:35PM 38.7764 -101.4311 256° West 413 475 38,000  Level Denver Center
03:36PM 38.7508 -101.5672 257° West 413 475 38,000  Level Denver Center
03:37PM 38.7264 -101.7028 257° West 411 473 38,000  Level Denver Center
03:38PM 38.6919 -101.8567 254° West 404 465 38,000  Level Denver Center
03:40PM 38.6575 -101.9889 252° West 410 472 38,000  Level Denver Center
03:41PM 38.6133 -102.1406 250° West 411 473 38,000  Level Denver Center
03:42PM 38.5731 -102.2706 248° West 411 473 38,000  Level Denver Center
03:43PM 38.5269 -102.4222 249° West 412 474 38,000  Level Denver Center
03:44PM 38.4867 -102.5506 248° West 409 471 38,000  Level Denver Center
03:45PM 38.4408 -102.7011 249° West 409 471 38,000  Level Denver Center
03:46PM 38.3956 -102.8272 245° Southwest 410 472 38,000  Level Denver Center
03:47PM 38.3461 -102.9767 247° West 410 472 38,000  Level Denver Center
03:48PM 38.3047 -103.1064 248° West 413 475 38,000  Level Denver Center
03:49PM 38.2628 -103.2350 247° West 413 475 38,000  Level Denver Center
03:50PM 38.2136 -103.3858 248° West 414 476 38,000  Level Denver Center
03:51PM 38.1706 -103.5161 247° West 417 480 38,000  Level Denver Center
03:52PM 38.1208 -103.6672 247° West 417 480 38,000  Level Denver Center
03:53PM 38.0783 -103.7956 247° West 415 478 38,000  Level Denver Center
03:54PM 38.0289 -103.9444 247° West 413 475 38,000  Level Denver Center
03:55PM 37.9861 -104.0700 247° West 410 472 38,000  Level Denver Center
03:56PM 37.9381 -104.2169 248° West 407 468 38,000  Level Denver Center
03:57PM 37.8953 -104.3431 247° West 409 471 38,000  Level Denver Center
03:58PM 37.8447 -104.4914 247° West 414 476 38,000  Level Denver Center
03:59PM 37.8011 -104.6194 247° West 416 479 38,000  Level Denver Center
04:00PM 37.7572 -104.7447 246° West 409 471 38,000  Level Denver Center
04:01PM 37.7081 -104.8903 247° West 407 468 38,000  Level Denver Center
04:02PM 37.6647 -105.0144 246° West 404 465 38,000  Level Denver Center
04:03PM 37.6144 -105.1583 246° West 401 461 38,000  Level Denver Center
04:04PM 37.5714 -105.2842 247° West 408 470 38,000  Level Denver Center
04:05PM 37.5161 -105.4358 245° Southwest 417 480 38,000  Level Denver Center
04:06PM 37.4714 -105.5661 247° West 422 486 38,000  Level Denver Center
04:07PM 37.4256 -105.6925 245° Southwest 415 478 38,000  Level Denver Center
04:08PM 37.3747 -105.8394 247° West 410 472 38,000  Level Denver Center
04:09PM 37.3308 -105.9636 246° West 407 468 38,000  Level Denver Center
04:10PM 37.2786 -106.1067 245° Southwest 403 464 38,000  Level Denver Center
04:11PM 37.2328 -106.2289 245° Southwest 403 464 38,000  Level Denver Center
04:12PM 37.1833 -106.3739 247° West 406 467 38,000  Level Denver Center
04:13PM 37.1372 -106.4989 245° Southwest 411 473 38,000  Level Denver Center
04:14PM 37.0900 -106.6267 245° Southwest 420 483 38,000  Level Denver Center
04:16PM 37.0372 -106.7758 246° West 418 481 38,000  Level Denver Center
04:17PM 36.9889 -106.9028 245° Southwest 422 486 38,000  Level Denver Center
04:18PM 36.9358 -107.0489 246° West 416 479 38,000  Level Denver Center
04:19PM 36.8897 -107.1736 245° Southwest 413 475 38,000  Level Denver Center
04:20PM 36.8353 -107.3175 245° Southwest 411 473 38,000  Level Denver Center
04:21PM 36.7894 -107.4414 245° Southwest 410 472 38,000  Level Denver Center
04:22PM 36.7428 -107.5639 245° Southwest 409 471 38,000  Level Denver Center
04:23PM 36.6881 -107.7075 245° Southwest 411 473 38,000  Level Denver Center
04:24PM 36.6422 -107.8314 245° Southwest 411 473 38,000  Level Denver Center
04:25PM 36.5867 -107.9772 245° Southwest 417 480 38,000  Level Denver Center
04:26PM 36.5392 -108.1017 245° Southwest 417 480 38,000  Level Denver Center
04:27PM 36.4831 -108.2456 244° Southwest 415 478 38,000  Level Denver Center
04:28PM 36.4358 -108.3697 245° Southwest 416 479 38,000  Level Denver Center
04:29PM 36.3886 -108.4914 244° Southwest 412 474 38,000  Level Denver Center
04:30PM 36.3333 -108.6344 244° Southwest 412 474 38,000  Level Denver Center
04:31PM 36.2703 -108.7972 244° Southwest 413 475 38,000  Level Denver Center
04:32PM 36.2231 -108.9189 244° Southwest 414 476 38,000  Level Denver Center
04:33PM 36.1653 -109.0603 243° Southwest 418 481 38,000  Level Denver Center
04:34PM 36.1153 -109.1853 244° Southwest 426 490 38,000  Level Denver Center
04:34PM 36.0986 -109.2269 244° Southwest 426 490 38,000  Level Albuquerque Center
04:36PM 36.0494 -109.3517 244° Southwest 425 489 38,000  Level Albuquerque Center
04:36PM 36.0072 -109.4558 243° Southwest 424 488 38,000  Level Denver Center
04:37PM 35.9511 -109.5989 244° Southwest 418 481 38,000  Level Denver Center
04:38PM 35.9014 -109.7197 243° Southwest 414 476 38,000  Level Denver Center
04:39PM 35.8536 -109.8400 244° Southwest 409 471 38,000  Level Denver Center
04:40PM 35.8325 -109.8783 236° Southwest 413 475 38,000  Level Albuquerque Center
04:41PM 35.7778 -110.0200 245° Southwest 411 473 38,000  Level Albuquerque Center
04:42PM 35.7253 -110.1428 242° Southwest 419 482 38,000  Level Albuquerque Center
04:43PM 35.6669 -110.2856 243° Southwest 418 481 38,000  Level Albuquerque Center
04:44PM 35.6169 -110.4083 243° Southwest 420 483 38,000  Level Albuquerque Center
04:45PM 35.5656 -110.5306 243° Southwest 420 483 38,000  Level Albuquerque Center
04:46PM 35.5058 -110.6750 243° Southwest 424 488 38,000  Level Albuquerque Center
04:47PM 35.4556 -110.7989 244° Southwest 424 488 38,000  Level Albuquerque Center
04:48PM 35.4086 -110.9489 249° West 421 484 38,000  Level Albuquerque Center
04:49PM 35.3669 -111.0792 249° West 426 490 38,000  Level Albuquerque Center
04:50PM 35.3167 -111.2278 248° West 425 489 38,000  Level Albuquerque Center
04:51PM 35.2756 -111.3614 249° West 431 496 38,000  Level Albuquerque Center
04:52PM 35.2311 -111.4911 247° West 420 483 38,000  Level Albuquerque Center
04:53PM 35.1869 -111.6225 248° West 419 482 38,000  Level Albuquerque Center
04:54PM 35.1394 -111.7631 248° West 417 480 38,000  Level Albuquerque Center
04:55PM 35.0950 -111.8950 248° West 419 482 38,000  Level Albuquerque Center
04:56PM 35.0497 -112.0258 247° West 420 483 38,000  Level Albuquerque Center
04:57PM 35.0042 -112.1586 247° West 424 488 38,000  Level Albuquerque Center
04:58PM 34.9492 -112.3192 247° West 427 491 38,000  Level Albuquerque Center
04:59PM 34.9036 -112.4522 247° West 426 490 38,000  Level Albuquerque Center
05:00PM 34.8572 -112.5850 247° West 426 490 38,000  Level Albuquerque Center
05:01PM 34.8111 -112.7189 247° West 428 493 38,000  Level Albuquerque Center
05:02PM 34.7647 -112.8511 247° West 427 491 38,000 -360 Level Albuquerque Center
05:03PM 34.7361 -112.9917 256° West 427 491 37,300 -840 Descending Albuquerque Center
05:04PM 34.7100 -113.1336 257° West 429 494 36,300 -1,020 Descending Albuquerque Center
05:05PM 34.6786 -113.3047 257° West 432 497 35,200 -1,020 Descending Albuquerque Center
05:06PM 34.6442 -113.4447 253° West 434 499 34,300 -600 Descending Albuquerque Center
05:07PM 34.5883 -113.5731 242° Southwest 433 498 34,000 -180 Descending Albuquerque Center
05:09PM 34.5242 -113.7208 242° Southwest 433 498 34,000  Level Albuquerque Center
05:10PM 34.4692 -113.8492 243° Southwest 429 494 34,000  Level Albuquerque Center
05:11PM 34.4128 -113.9758 242° Southwest 427 491 34,000  Level Albuquerque Center
05:12PM 34.3572 -114.1014 242° Southwest 426 490 34,000 -540 Level Albuquerque Center
05:13PM 34.3003 -114.2286 242° Southwest 427 491 33,000 -960 Descending Albuquerque Center
05:14PM 34.2433 -114.3564 242° Southwest 430 495 32,100 -1,080 Descending Albuquerque Center
05:14PM 34.2197 -114.4097 242° Southwest 430 495 31,600 -1,140 Descending Los Angeles Center
05:15PM 34.1625 -114.5369 242° Southwest 431 496 30,600 -900 Descending Los Angeles Center
05:16PM 34.1172 -114.6383 242° Southwest 431 496 29,800 -1,020 Descending Los Angeles Center
05:17PM 34.0508 -114.7867 242° Southwest 423 487 28,600 -900 Descending Los Angeles Center
05:18PM 33.9822 -114.9339 241° Southwest 421 484 28,000 -300 Descending Los Angeles Center
05:19PM 33.9267 -115.0553 241° Southwest 417 480 28,000  Level Los Angeles Center
05:20PM 33.8833 -115.1514 242° Southwest 414 476 28,000  Level Los Angeles Center
05:21PM 33.8178 -115.2944 241° Southwest 409 471 28,000  Level Los Angeles Center
05:22PM 33.7625 -115.4131 241° Southwest 408 470 28,000  Level Los Angeles Center
05:23PM 33.7078 -115.5328 241° Southwest 410 472 28,000  Level Los Angeles Center
05:24PM 33.6411 -115.6750 241° Southwest 407 468 28,000  Level Los Angeles Center
05:25PM 33.5694 -115.7822 231° Southwest 417 480 28,000 -660 Level Los Angeles Center
05:26PM 33.4897 -115.8789 225° Southwest 411 473 26,700 -1,620 Descending Los Angeles Center
05:28PM 33.4064 -115.9747 224° Southwest 415 478 24,400 -2,460 Descending Los Angeles Center
05:29PM 33.3117 -116.0867 225° Southwest 404 465 21,200 -3,240 Descending Los Angeles Center
05:30PM 33.2183 -116.1972 225° Southwest 397 457 17,800 -2,520 Descending Los Angeles Center
05:31PM 33.1419 -116.2850 224° Southwest 389 448 16,000 -2,040 Descending Los Angeles Center
05:32PM 33.0706 -116.3692 225° Southwest 372 428 13,600 -1,980 Descending Los Angeles Center
05:33PM 33.0022 -116.4542 226° Southwest 358 412 12,000 -1,620 Descending Los Angeles Center
05:34PM 32.9372 -116.5517 232° Southwest 332 382 10,300 -1,260 Descending Los Angeles Center
05:35PM 32.8864 -116.6253 231° Southwest 298 343 9,400 -1,140 Descending Los Angeles Center
05:36PM 32.8378 -116.6961 231° Southwest 283 326 8,000 -1,320 Descending Los Angeles Center
05:37PM 32.7900 -116.7642 230° Southwest 274 315 6,700 -1,020 Descending Los Angeles Center
05:38PM 32.7447 -116.8306 231° Southwest 265 305 6,000 -780 Descending Los Angeles Center
05:39PM 32.7167 -116.8833 238° Southwest 231 266 5,400 -900 Descending Southern California TRACON
05:40PM 32.6833 -116.9333 232° Southwest 221 254 4,500 -1,140 Descending Southern California TRACON
05:41PM 32.6833 -117.0000 270° West 197 227 3,200 -1,200 Descending Southern California TRACON
05:42PM 32.7000 -117.0667 287° West 169 194 2,200 -900 Descending Southern California TRACON
05:43PM 32.7167 -117.1000 301° West 140 161 1,400 -840 Descending Southern California TRACON
05:44PM 32.7167 -117.1500 270° West 138 159 700 -720 Descending Southern California TRACON
05:44PM 32.7278 -117.1644 312° West 141 162 400 -540 Descending Los Angeles Center
05:46PM 32.7333 -117.1833 281° West  Level FlightAware Approximate
05:53PM 32.7336 -117.1897 281° West  Level Estimated